createdAt,value
2023-03-23T15:59:54.319Z,95040.19
2023-03-23T16:02:25.433Z,95029.53
2023-03-23T16:04:53.371Z,95026.06
2023-03-23T16:07:24.682Z,95030.81
2023-03-23T16:09:52.303Z,95031.28
2023-03-23T16:12:21.734Z,95031.50
2023-03-23T16:14:49.426Z,95028.84
2023-03-23T16:17:21.760Z,95030.78
2023-03-23T16:19:49.929Z,95026.88
2023-03-23T16:22:18.646Z,95028.38
2023-03-23T16:24:46.490Z,95025.00
2023-03-23T16:27:14.554Z,95026.28
2023-03-23T16:30:02.167Z,95029.19
2023-03-23T16:32:31.451Z,95039.50
2023-03-23T16:34:59.143Z,95032.31
2023-03-23T16:37:26.939Z,95039.63
2023-03-23T16:39:54.559Z,95044.25
2023-03-23T16:42:22.158Z,95041.59
2023-03-23T16:44:51.331Z,95044.34
2023-03-23T16:47:23.403Z,95035.81
2023-03-23T16:49:51.442Z,95033.25
2023-03-23T16:52:19.314Z,95027.41
2023-03-23T16:54:47.067Z,95033.66
2023-03-23T16:57:14.781Z,95037.81
2023-03-23T16:59:42.378Z,95029.53
2023-03-23T17:02:12.873Z,95037.09
2023-03-23T17:04:44.958Z,95033.22
2023-03-23T17:07:13.372Z,95026.13
2023-03-23T17:09:42.650Z,95025.31
2023-03-23T17:12:10.542Z,95034.97
2023-03-23T17:14:38.161Z,95036.28
2023-03-23T17:17:05.809Z,95038.22
2023-03-23T17:19:35.053Z,95040.81
2023-03-23T17:22:03.164Z,95045.06
2023-03-23T17:24:30.838Z,95036.66
2023-03-23T17:27:22.772Z,95035.03
2023-03-23T17:29:50.556Z,95040.22
2023-03-23T17:32:18.784Z,95045.56
2023-03-23T17:34:47.745Z,95043.59
2023-03-23T17:37:16.072Z,95048.75
2023-03-23T17:39:44.875Z,95041.38
2023-03-23T17:42:14.532Z,95045.94
2023-03-23T17:44:42.884Z,95053.53
2023-03-23T17:47:10.753Z,95042.22
2023-03-23T17:49:38.375Z,95035.97
2023-03-23T17:52:07.337Z,95044.31
2023-03-23T17:54:35.255Z,95046.28
2023-03-23T17:57:03.989Z,95051.25
2023-03-23T17:59:32.217Z,95055.38
2023-03-23T18:01:59.864Z,95065.19
2023-03-23T18:04:28.320Z,95065.31
2023-03-23T18:06:57.552Z,95061.03
2023-03-23T18:09:27.218Z,95060.66
2023-03-23T18:11:56.504Z,95070.13
2023-03-23T18:14:24.883Z,95067.84
2023-03-23T18:16:53.118Z,95073.03
2023-03-23T18:19:21.108Z,95075.94
2023-03-23T18:21:49.041Z,95066.03
2023-03-23T18:24:16.959Z,95067.19
2023-03-23T18:26:45.995Z,95074.81
2023-03-23T18:29:13.621Z,95073.53
2023-03-23T18:31:41.383Z,95075.19
2023-03-23T18:34:09.129Z,95078.84
2023-03-23T18:36:36.800Z,95075.03
2023-03-23T18:39:06.516Z,95081.72
2023-03-23T18:41:34.138Z,95080.81
2023-03-23T18:44:03.253Z,95084.63
2023-03-23T18:46:30.899Z,95083.59
2023-03-23T18:48:58.819Z,95083.59
2023-03-23T18:51:26.986Z,95077.38
2023-03-23T18:53:54.868Z,95082.34
2023-03-23T18:56:22.529Z,95080.94
2023-03-23T18:58:53.324Z,95083.59
2023-03-23T19:01:22.483Z,95091.72
2023-03-23T19:03:50.380Z,95092.34
2023-03-23T19:06:20.232Z,95087.03
2023-03-23T19:08:48.989Z,95089.34
2023-03-23T19:11:17.350Z,95094.88
2023-03-23T19:13:58.349Z,95088.16
2023-03-23T19:16:31.157Z,95087.94
2023-03-23T19:18:59.234Z,95085.97
2023-03-23T19:21:29.079Z,95085.16
2023-03-23T19:23:59.073Z,95091.38
2023-03-23T19:26:31.133Z,95079.94
2023-03-23T19:31:31.962Z,95085.59
2023-03-23T19:34:00.533Z,95081.13
2023-03-23T19:36:28.487Z,95093.56
2023-03-23T19:38:57.661Z,95088.88
2023-03-23T19:41:27.570Z,95090.81
2023-03-23T19:43:55.500Z,95091.75
2023-03-23T19:46:23.221Z,95092.75
2023-03-23T19:48:52.614Z,95086.19
2023-03-23T19:51:22.444Z,95092.06
2023-03-23T19:53:50.808Z,95088.59
2023-03-23T19:56:21.473Z,95082.34
2023-03-23T19:58:49.535Z,95082.13
2023-03-23T20:01:17.957Z,95081.31
2023-03-23T20:03:46.528Z,95074.97
2023-03-23T20:06:16.569Z,95073.22
2023-03-23T20:08:47.531Z,95078.41
2023-03-23T20:11:18.204Z,95080.47
2023-03-23T20:13:48.336Z,95072.75
2023-03-23T20:16:17.668Z,95072.34
2023-03-23T20:18:46.273Z,95079.75
2023-03-23T20:21:19.604Z,95083.00
2023-03-23T20:23:48.766Z,95071.19
2023-03-23T20:26:21.016Z,95071.19
2023-03-23T20:28:48.727Z,95072.00
2023-03-23T20:31:23.247Z,95068.69
2023-03-23T20:34:00.680Z,95061.72
2023-03-23T20:36:36.123Z,95070.75
2023-03-23T20:39:06.153Z,95072.69
2023-03-23T20:41:36.323Z,95070.84
2023-03-23T20:44:05.158Z,95073.28
2023-03-23T20:46:33.390Z,95066.69
2023-03-23T20:49:01.792Z,95075.47
2023-03-23T20:51:31.438Z,95074.44
2023-03-23T20:53:59.452Z,95067.50
2023-03-23T20:56:27.583Z,95066.78
2023-03-23T20:58:55.417Z,95066.19
2023-03-23T21:01:23.348Z,95065.69
2023-03-23T21:03:52.148Z,95062.13
2023-03-23T21:06:20.180Z,95056.81
2023-03-23T21:08:51.753Z,95056.81
2023-03-23T21:11:21.614Z,95055.88
2023-03-23T21:13:50.655Z,95059.13
2023-03-23T21:16:19.364Z,95047.91
2023-03-23T21:18:48.052Z,95049.84
2023-03-23T21:21:18.169Z,95045.28
2023-03-23T21:23:52.027Z,95037.84
2023-03-23T21:26:23.590Z,95034.44
2023-03-23T21:28:53.828Z,95032.19
2023-03-23T21:31:25.558Z,95029.22
2023-03-23T21:33:53.211Z,95027.91
2023-03-23T21:36:21.001Z,95019.66
2023-03-23T21:38:49.996Z,95020.97
2023-03-23T21:41:23.264Z,95024.63
2023-03-23T21:43:52.408Z,95023.91
2023-03-23T21:46:22.510Z,95015.44
2023-03-23T21:48:51.590Z,95011.34
2023-03-23T21:51:22.064Z,95012.59
2023-03-23T21:53:50.127Z,95010.84
2023-03-23T21:56:18.114Z,95011.50
2023-03-23T21:58:46.023Z,94999.25
2023-03-23T22:01:16.101Z,95009.06
2023-03-23T22:03:43.740Z,95002.94
2023-03-23T22:06:14.871Z,94994.81
2023-03-23T22:08:44.608Z,94997.91
2023-03-23T22:11:14.528Z,94981.84
2023-03-23T22:13:42.671Z,94987.59
2023-03-23T22:16:14.414Z,94991.28
2023-03-23T22:18:45.154Z,94984.78
2023-03-23T22:21:14.202Z,94986.03
2023-03-23T22:23:42.713Z,94971.81
2023-03-23T22:26:15.413Z,94973.09
2023-03-23T22:28:46.337Z,94974.75
2023-03-23T22:31:19.029Z,94969.09
2023-03-23T22:33:49.022Z,94970.75
2023-03-23T22:36:18.023Z,94965.09
2023-03-23T22:38:48.142Z,94968.72
2023-03-23T22:41:19.098Z,94957.78
2023-03-23T22:43:47.698Z,94953.50
2023-03-23T22:46:16.140Z,94947.19
2023-03-23T22:48:44.496Z,94938.88
2023-03-23T22:51:15.561Z,94939.91
2023-03-23T22:53:43.994Z,94930.47
2023-03-23T22:56:12.471Z,94930.03
2023-03-23T22:58:40.552Z,94925.56
2023-03-23T23:01:10.710Z,94930.03
2023-03-23T23:03:40.283Z,94924.81
2023-03-23T23:06:09.166Z,94920.69
2023-03-23T23:08:39.061Z,94924.38
2023-03-23T23:11:10.906Z,94922.97
2023-03-23T23:13:39.140Z,94915.09
2023-03-23T23:16:07.814Z,94915.22
2023-03-23T23:18:36.549Z,94908.75
2023-03-23T23:21:07.525Z,94901.84
2023-03-23T23:23:36.034Z,94892.47
2023-03-23T23:26:05.660Z,94889.00
2023-03-23T23:28:33.449Z,94896.59
2023-03-23T23:31:01.302Z,94912.94
2023-03-23T23:33:29.211Z,94907.69
2023-03-23T23:35:56.949Z,94902.59
2023-03-23T23:38:25.159Z,94905.75
2023-03-23T23:40:52.786Z,94897.41
2023-03-23T23:43:24.452Z,94898.44
2023-03-23T23:45:52.132Z,94907.34
2023-03-23T23:48:20.222Z,94899.56
2023-03-23T23:50:50.620Z,94884.28
2023-03-23T23:53:22.665Z,94889.72
2023-03-23T23:55:50.551Z,94882.09
2023-03-23T23:58:18.750Z,94886.97
